createdAt,value
2022-11-28T00:01:21.227Z,101846.83
2022-11-28T00:03:53.713Z,101848.19
2022-11-28T00:06:26.757Z,101846.33
2022-11-28T00:09:00.929Z,101844.37
2022-11-28T00:11:33.408Z,101844.77
2022-11-28T00:14:05.989Z,101841.77
2022-11-28T00:16:38.594Z,101846.19
2022-11-28T00:19:11.755Z,101845.51
2022-11-28T00:21:44.777Z,101848.23
2022-11-28T00:24:17.231Z,101845.47
2022-11-28T00:26:49.717Z,101847.16
2022-11-28T00:29:22.552Z,101845.84
2022-11-28T00:31:55.209Z,101846.63
2022-11-28T00:34:27.882Z,101846.46
2022-11-28T00:37:00.602Z,101847.52
2022-11-28T00:39:31.485Z,101850.28
2022-11-28T00:42:04.007Z,101852.57
2022-11-28T00:44:36.931Z,101849.41
2022-11-28T00:47:07.731Z,101851.15
2022-11-28T00:49:40.283Z,101848.16
2022-11-28T00:52:12.980Z,101844.81
2022-11-28T00:54:45.470Z,101847.61
2022-11-28T00:57:17.879Z,101845.25
2022-11-28T00:59:50.403Z,101847.18
2022-11-28T01:02:22.922Z,101847.51
2022-11-28T01:04:55.529Z,101849.62
2022-11-28T01:07:28.771Z,101850.08
2022-11-28T01:10:01.478Z,101848.65
2022-11-28T01:12:34.002Z,101849.52
2022-11-28T01:15:07.784Z,101849.48
2022-11-28T01:17:40.445Z,101847.50
2022-11-28T01:20:15.054Z,101843.66
2022-11-28T01:22:47.456Z,101843.33
2022-11-28T01:25:19.915Z,101843.03
2022-11-28T01:27:52.457Z,101836.02
2022-11-28T01:30:24.972Z,101840.38
2022-11-28T01:32:57.551Z,101833.96
2022-11-28T01:35:30.053Z,101834.14
2022-11-28T01:38:02.445Z,101827.02
2022-11-28T01:40:34.942Z,101824.05
2022-11-28T01:43:10.327Z,101821.80
2022-11-28T01:45:43.016Z,101822.21
2022-11-28T01:48:19.955Z,101818.30
2022-11-28T01:50:56.329Z,101815.45
2022-11-28T01:53:29.768Z,101812.09
2022-11-28T01:56:05.017Z,101807.94
2022-11-28T01:58:39.966Z,101807.88
2022-11-28T02:01:13.314Z,101800.71
2022-11-28T02:03:47.720Z,101801.26
2022-11-28T02:06:21.905Z,101795.40
2022-11-28T02:08:55.476Z,101793.89
2022-11-28T02:11:52.203Z,101795.48
2022-11-28T02:14:35.788Z,101792.99
2022-11-28T02:17:15.684Z,101797.06
2022-11-28T02:20:23.037Z,101791.83
2022-11-28T02:23:02.371Z,101787.80
2022-11-28T02:26:05.908Z,101789.89
2022-11-28T02:29:03.419Z,101785.77
2022-11-28T02:32:11.501Z,101786.75
2022-11-28T02:34:50.061Z,101788.34
2022-11-28T02:37:30.633Z,101789.87
2022-11-28T02:40:10.723Z,101790.48
2022-11-28T02:42:51.463Z,101792.29
2022-11-28T02:45:29.264Z,101797.89
2022-11-28T02:48:05.538Z,101794.17
2022-11-28T02:50:42.087Z,101797.29
2022-11-28T02:53:17.611Z,101794.48
2022-11-28T02:55:52.435Z,101794.18
2022-11-28T02:58:24.929Z,101800.55
2022-11-28T03:00:57.870Z,101797.36
2022-11-28T03:03:41.269Z,101798.08
2022-11-28T03:06:20.314Z,101797.75
2022-11-28T03:09:11.492Z,101800.39
2022-11-28T03:11:51.258Z,101796.85
2022-11-28T03:14:33.263Z,101802.77
2022-11-28T03:17:12.244Z,101799.30
2022-11-28T03:19:48.480Z,101798.67
2022-11-28T03:22:28.114Z,101795.24
2022-11-28T03:25:14.107Z,101796.38
2022-11-28T03:27:48.495Z,101792.00
2022-11-28T03:30:25.587Z,101791.34
2022-11-28T03:32:59.457Z,101792.72
2022-11-28T03:35:34.775Z,101789.35
2022-11-28T03:38:11.457Z,101788.10
2022-11-28T03:40:46.884Z,101787.20
2022-11-28T03:43:23.604Z,101783.02
2022-11-28T03:46:00.251Z,101785.99
2022-11-28T03:48:35.886Z,101787.84
2022-11-28T03:51:10.976Z,101793.12
2022-11-28T03:53:52.198Z,101791.73
2022-11-28T03:56:27.992Z,101792.34
2022-11-28T03:59:03.518Z,101787.89
2022-11-28T04:01:41.273Z,101789.46
2022-11-28T04:04:17.590Z,101793.09
2022-11-28T04:06:57.156Z,101794.55
2022-11-28T04:09:41.072Z,101795.27
2022-11-28T04:12:22.449Z,101793.29
2022-11-28T04:14:57.379Z,101801.34
2022-11-28T04:17:33.687Z,101800.30
2022-11-28T04:20:10.030Z,101803.99
2022-11-28T04:22:47.826Z,101803.88
2022-11-28T04:25:23.060Z,101805.23
2022-11-28T04:27:59.240Z,101805.92
2022-11-28T04:30:31.752Z,101802.72
2022-11-28T04:33:07.522Z,101803.27
2022-11-28T04:35:41.493Z,101806.17
2022-11-28T04:38:15.192Z,101808.69
2022-11-28T04:40:52.548Z,101810.54
2022-11-28T04:43:38.657Z,101812.77
2022-11-28T04:46:14.533Z,101813.83
2022-11-28T04:48:47.290Z,101812.54
2022-11-28T04:51:18.967Z,101813.21
2022-11-28T04:53:55.805Z,101812.64
2022-11-28T04:56:32.937Z,101815.59
2022-11-28T04:59:08.777Z,101820.08
2022-11-28T05:01:42.090Z,101819.32
2022-11-28T05:04:17.307Z,101818.45
2022-11-28T05:06:50.239Z,101815.74
2022-11-28T05:09:21.045Z,101819.32
2022-11-28T05:11:53.973Z,101825.30
2022-11-28T05:14:26.741Z,101829.89
2022-11-28T05:16:57.687Z,101829.20
2022-11-28T05:19:30.154Z,101827.62
2022-11-28T05:22:02.631Z,101832.35
2022-11-28T05:24:35.171Z,101832.29
2022-11-28T05:27:08.052Z,101833.99
2022-11-28T05:29:46.821Z,101835.45
2022-11-28T05:32:21.960Z,101832.90
2022-11-28T05:34:54.628Z,101834.70
2022-11-28T05:37:27.166Z,101832.58
2022-11-28T05:39:59.705Z,101836.89
2022-11-28T05:42:35.036Z,101834.31
2022-11-28T05:45:08.947Z,101834.38
2022-11-28T05:47:41.477Z,101837.92
2022-11-28T05:50:14.722Z,101846.09
2022-11-28T05:52:47.262Z,101849.95
2022-11-28T05:55:20.562Z,101856.21
2022-11-28T05:57:54.046Z,101863.18
2022-11-28T06:00:29.716Z,101867.25
2022-11-28T06:03:07.097Z,101867.31
2022-11-28T06:05:43.847Z,101868.02
2022-11-28T06:08:18.627Z,101870.66
2022-11-28T06:10:59.818Z,101873.54
2022-11-28T06:13:34.294Z,101873.82
2022-11-28T06:16:11.012Z,101875.73
2022-11-28T06:18:44.196Z,101881.20
2022-11-28T06:21:17.804Z,101881.19
2022-11-28T06:23:50.625Z,101880.06
2022-11-28T06:26:24.732Z,101880.64
2022-11-28T06:28:58.927Z,101881.84
2022-11-28T06:31:34.811Z,101881.06
2022-11-28T06:34:08.011Z,101879.73
2022-11-28T06:36:46.012Z,101879.88
2022-11-28T06:39:24.568Z,101879.33
2022-11-28T06:41:57.075Z,101879.34
2022-11-28T06:44:31.726Z,101877.55
2022-11-28T06:47:04.218Z,101881.77
2022-11-28T06:49:36.995Z,101880.59
2022-11-28T06:52:08.081Z,101879.48
2022-11-28T06:54:40.743Z,101878.68
2022-11-28T06:57:14.298Z,101880.27
2022-11-28T06:59:47.006Z,101879.67
2022-11-28T07:02:19.585Z,101879.95
2022-11-28T07:04:52.658Z,101881.25
2022-11-28T07:07:27.502Z,101878.21
2022-11-28T07:10:08.978Z,101879.95
2022-11-28T07:12:45.033Z,101884.34
2022-11-28T07:15:18.272Z,101886.39
2022-11-28T07:17:51.747Z,101885.70
2022-11-28T07:20:27.069Z,101880.71
2022-11-28T07:23:02.294Z,101880.86
2022-11-28T07:25:35.442Z,101877.27
2022-11-28T07:28:08.525Z,101873.66
2022-11-28T07:30:41.466Z,101877.64
2022-11-28T07:33:14.243Z,101872.94
2022-11-28T07:35:47.017Z,101870.85
2022-11-28T07:38:17.812Z,101870.60
2022-11-28T07:40:50.703Z,101863.27
2022-11-28T07:43:23.808Z,101866.44
2022-11-28T07:46:01.120Z,101867.41
2022-11-28T07:48:34.789Z,101863.21
2022-11-28T07:51:11.021Z,101863.27
2022-11-28T07:53:44.060Z,101864.14
2022-11-28T07:56:20.759Z,101867.12
2022-11-28T07:58:54.469Z,101859.75
2022-11-28T08:01:31.053Z,101860.83
2022-11-28T08:04:04.017Z,101859.86
2022-11-28T08:06:39.640Z,101858.86
2022-11-28T08:09:13.788Z,101862.23
2022-11-28T08:11:48.377Z,101866.39
2022-11-28T08:14:25.745Z,101870.80
2022-11-28T08:16:58.460Z,101866.59
2022-11-28T08:19:37.374Z,101866.36
2022-11-28T08:22:12.495Z,101866.10
2022-11-28T08:24:51.400Z,101866.30
2022-11-28T08:27:43.686Z,101861.70
2022-11-28T08:30:22.890Z,101861.11
2022-11-28T08:33:09.914Z,101860.97
2022-11-28T08:35:48.806Z,101854.41
2022-11-28T08:38:26.508Z,101852.19
2022-11-28T08:41:05.446Z,101848.49
2022-11-28T08:43:46.607Z,101837.48
2022-11-28T08:46:38.624Z,101835.29
2022-11-28T08:49:18.589Z,101830.48
2022-11-28T08:51:53.427Z,101828.16
2022-11-28T08:54:28.604Z,101820.52
2022-11-28T08:57:10.210Z,101815.58
2022-11-28T08:59:49.779Z,101812.67
2022-11-28T09:02:25.914Z,101809.85
2022-11-28T09:05:07.718Z,101805.70
2022-11-28T09:07:40.362Z,101798.77
2022-11-28T09:10:13.945Z,101794.79
2022-11-28T09:12:48.196Z,101789.74
2022-11-28T09:15:25.152Z,101787.45
2022-11-28T09:17:58.233Z,101781.97
2022-11-28T09:20:31.334Z,101779.48
2022-11-28T09:23:03.957Z,101775.04
2022-11-28T09:25:37.987Z,101772.20
2022-11-28T09:28:10.619Z,101768.05
2022-11-28T09:30:43.363Z,101769.49
2022-11-28T09:33:15.993Z,101766.31
2022-11-28T09:35:48.646Z,101759.66
2022-11-28T09:38:21.524Z,101760.46
2022-11-28T09:40:54.776Z,101757.77
2022-11-28T09:43:32.914Z,101753.90
2022-11-28T09:46:07.638Z,101752.73
2022-11-28T09:48:43.182Z,101747.78
2022-11-28T09:51:31.291Z,101744.33
2022-11-28T09:54:11.292Z,101739.73
2022-11-28T09:56:43.909Z,101736.98
2022-11-28T09:59:20.956Z,101734.65
2022-11-28T10:02:00.813Z,101731.69
2022-11-28T10:04:39.538Z,101729.48
2022-11-28T10:07:17.240Z,101730.19
2022-11-28T10:09:57.638Z,101724.95
2022-11-28T10:12:39.511Z,101723.16
2022-11-28T10:15:22.130Z,101719.32
2022-11-28T10:18:06.095Z,101717.58
2022-11-28T10:20:40.881Z,101716.98
2022-11-28T10:23:21.469Z,101714.48
2022-11-28T10:25:56.282Z,101706.06
2022-11-28T10:28:31.221Z,101700.59
2022-11-28T10:31:05.786Z,101690.70
2022-11-28T10:33:45.198Z,101682.80
2022-11-28T10:36:22.801Z,101679.55
2022-11-28T10:38:55.871Z,101677.72
2022-11-28T10:41:33.217Z,101678.31
2022-11-28T10:44:09.031Z,101676.95
2022-11-28T10:46:52.917Z,101677.00
2022-11-28T10:49:33.933Z,101674.91
2022-11-28T10:52:13.955Z,101674.28
2022-11-28T10:55:04.262Z,101673.84
2022-11-28T10:57:40.731Z,101665.39
2022-11-28T11:00:15.417Z,101662.36
2022-11-28T11:02:49.817Z,101662.44
2022-11-28T11:05:25.830Z,101663.94
2022-11-28T11:08:00.155Z,101661.34
2022-11-28T11:10:37.984Z,101659.06
2022-11-28T11:13:19.342Z,101654.44
2022-11-28T11:15:53.569Z,101655.00
2022-11-28T11:18:28.615Z,101657.99
2022-11-28T11:21:15.659Z,101658.20
2022-11-28T11:23:50.035Z,101656.65
2022-11-28T11:26:43.890Z,101654.77
2022-11-28T11:29:35.543Z,101647.58
2022-11-28T11:32:18.059Z,101653.39
2022-11-28T11:34:50.715Z,101658.96
2022-11-28T11:37:25.454Z,101663.85
2022-11-28T11:39:58.065Z,101664.50
2022-11-28T11:42:32.876Z,101664.57
2022-11-28T11:45:27.632Z,101665.05
2022-11-28T11:48:00.729Z,101664.57
2022-11-28T11:50:36.357Z,101662.48
2022-11-28T11:53:14.154Z,101668.02
2022-11-28T11:55:51.553Z,101665.57
2022-11-28T11:58:27.142Z,101661.21
2022-11-28T12:01:01.706Z,101661.78
2022-11-28T12:03:38.303Z,101660.75
2022-11-28T12:06:15.781Z,101663.08
2022-11-28T12:08:52.843Z,101654.28
2022-11-28T12:11:29.525Z,101652.16
2022-11-28T12:14:11.472Z,101653.09
2022-11-28T12:16:50.416Z,101656.59
2022-11-28T12:19:27.954Z,101653.86
2022-11-28T12:22:09.071Z,101653.29
2022-11-28T12:24:49.639Z,101652.55
2022-11-28T12:27:31.341Z,101649.51
2022-11-28T12:30:26.913Z,101646.56
2022-11-28T12:33:08.945Z,101644.00
2022-11-28T12:35:44.184Z,101645.68
2022-11-28T12:38:31.509Z,101646.59
2022-11-28T12:41:20.352Z,101654.93
2022-11-28T12:44:03.920Z,101654.60
2022-11-28T12:46:45.422Z,101653.27
2022-11-28T12:49:21.596Z,101648.10
2022-11-28T12:52:03.139Z,101643.58
2022-11-28T12:54:48.975Z,101640.50
2022-11-28T12:57:26.733Z,101642.05
2022-11-28T13:00:08.484Z,101639.11
2022-11-28T13:02:54.800Z,101643.77
2022-11-28T13:05:48.940Z,101645.19
2022-11-28T13:08:49.743Z,101641.80
2022-11-28T13:11:40.135Z,101637.80
2022-11-28T13:14:20.093Z,101638.79
2022-11-28T13:16:54.170Z,101645.13
2022-11-28T13:19:36.145Z,101644.83
2022-11-28T13:22:13.301Z,101646.73
2022-11-28T13:24:52.666Z,101653.75
2022-11-28T13:27:33.383Z,101652.27
2022-11-28T13:30:16.066Z,101658.65
2022-11-28T13:32:53.231Z,101658.73
2022-11-28T13:35:26.664Z,101661.44
2022-11-28T13:41:01.120Z,101664.05
2022-11-28T13:43:43.335Z,101659.27
2022-11-28T13:46:17.574Z,101656.58
2022-11-28T13:52:26.213Z,101659.23
2022-11-28T13:54:59.159Z,101658.61
2022-11-28T13:57:36.853Z,101660.66
2022-11-28T14:00:23.902Z,101661.08
2022-11-28T14:03:00.184Z,101662.34
2022-11-28T14:05:35.304Z,101662.87
2022-11-28T14:08:08.959Z,101665.42
2022-11-28T14:11:05.938Z,101663.39
2022-11-28T14:14:01.162Z,101667.38
2022-11-28T14:16:50.138Z,101666.01
2022-11-28T14:19:34.643Z,101668.27
2022-11-28T14:22:17.228Z,101676.98
2022-11-28T14:24:58.621Z,101681.36
2022-11-28T14:27:34.662Z,101681.33
2022-11-28T14:30:09.557Z,101679.95
2022-11-28T14:32:43.499Z,101679.35
2022-11-28T14:35:23.208Z,101682.29
2022-11-28T14:37:57.774Z,101689.89
2022-11-28T14:41:09.277Z,101694.16
2022-11-28T14:43:42.925Z,101694.72
2022-11-28T14:46:34.026Z,101689.52
2022-11-28T14:49:24.150Z,101686.05
2022-11-28T14:52:41.797Z,101682.52
2022-11-28T14:55:25.406Z,101685.48
2022-11-28T14:57:59.664Z,101688.73
2022-11-28T15:00:36.582Z,101687.98
2022-11-28T15:03:26.551Z,101686.20
2022-11-28T15:06:03.871Z,101683.13
2022-11-28T15:08:45.599Z,101680.59
2022-11-28T15:11:58.729Z,101681.27
2022-11-28T15:14:32.893Z,101679.08
2022-11-28T15:17:08.398Z,101679.86
2022-11-28T15:19:44.985Z,101675.87
2022-11-28T15:22:31.884Z,101673.48
2022-11-28T15:25:04.813Z,101675.23
2022-11-28T15:27:38.583Z,101682.14
2022-11-28T15:30:20.940Z,101680.70
2022-11-28T15:32:53.703Z,101680.67
2022-11-28T15:35:26.478Z,101682.20
2022-11-28T15:38:00.953Z,101676.71
2022-11-28T15:40:37.774Z,101678.51
2022-11-28T15:43:20.129Z,101675.38
2022-11-28T15:45:59.155Z,101671.88
2022-11-28T15:48:40.147Z,101673.52
2022-11-28T15:51:32.380Z,101673.79
2022-11-28T15:54:19.797Z,101676.67
2022-11-28T15:57:15.053Z,101672.38
2022-11-28T16:01:07.777Z,101667.16
2022-11-28T16:03:38.814Z,101660.41
2022-11-28T16:06:12.585Z,101658.67
2022-11-28T16:08:54.142Z,101660.46
2022-11-28T16:11:32.057Z,101666.34
2022-11-28T16:14:10.658Z,101660.10
2022-11-28T16:16:56.172Z,101662.35
2022-11-28T16:19:40.850Z,101662.21
2022-11-28T16:22:21.137Z,101662.80
2022-11-28T16:25:23.183Z,101663.90
2022-11-28T16:28:33.459Z,101662.96
2022-11-28T16:31:29.697Z,101656.98
2022-11-28T16:34:12.840Z,101654.04
2022-11-28T16:36:48.949Z,101654.77
2022-11-28T16:39:21.753Z,101652.41
2022-11-28T16:42:07.403Z,101653.21
2022-11-28T16:44:40.516Z,101643.80
2022-11-28T16:47:30.210Z,101638.73
2022-11-28T16:50:20.399Z,101638.27
2022-11-28T16:52:55.174Z,101639.42
2022-11-28T16:55:46.963Z,101638.15
2022-11-28T16:58:23.502Z,101639.92
2022-11-28T17:01:05.513Z,101642.68
2022-11-28T17:03:52.742Z,101639.73
2022-11-28T17:06:34.117Z,101638.25
2022-11-28T17:09:08.463Z,101634.45
2022-11-28T17:11:44.945Z,101636.73
2022-11-28T17:14:18.038Z,101628.59
2022-11-28T17:16:50.868Z,101627.90
2022-11-28T17:19:21.709Z,101634.77
2022-11-28T17:22:07.052Z,101633.64
2022-11-28T17:24:49.187Z,101634.86
2022-11-28T17:27:27.572Z,101635.59
2022-11-28T17:30:01.530Z,101638.16
2022-11-28T17:32:33.995Z,101634.02
2022-11-28T17:35:07.562Z,101629.52
2022-11-28T17:37:40.333Z,101628.85
2022-11-28T17:40:34.685Z,101631.55
2022-11-28T17:43:18.060Z,101628.98
2022-11-28T17:52:50.346Z,101637.02
2022-11-28T17:55:25.564Z,101630.88
2022-11-28T18:01:49.553Z,101635.38
2022-11-28T18:04:25.745Z,101637.02
2022-11-28T18:06:58.343Z,101635.54
2022-11-28T18:09:31.033Z,101630.92
2022-11-28T18:12:02.139Z,101628.55
2022-11-28T18:14:39.916Z,101630.74
2022-11-28T18:17:14.680Z,101628.21
2022-11-28T18:19:52.025Z,101623.86
2022-11-28T18:22:34.236Z,101631.30
2022-11-28T18:25:20.295Z,101627.48
2022-11-28T18:27:53.518Z,101630.02
2022-11-28T18:30:38.151Z,101631.41
2022-11-28T18:33:43.973Z,101627.06
2022-11-28T18:36:23.349Z,101622.68
2022-11-28T18:38:59.080Z,101626.37
2022-11-28T18:41:32.678Z,101628.77
2022-11-28T18:44:06.646Z,101622.86
2022-11-28T18:46:43.259Z,101622.21
2022-11-28T18:49:26.521Z,101621.45
2022-11-28T18:52:37.175Z,101615.14
2022-11-28T18:55:20.828Z,101616.20
2022-11-28T18:57:57.278Z,101613.75
2022-11-28T19:00:42.369Z,101614.30
2022-11-28T19:03:18.210Z,101614.80
2022-11-28T19:05:53.431Z,101618.35
2022-11-28T19:08:25.983Z,101615.19
2022-11-28T19:10:58.605Z,101616.30
2022-11-28T19:13:31.338Z,101619.63
2022-11-28T19:16:07.894Z,101623.63
2022-11-28T19:18:42.033Z,101621.85
2022-11-28T19:21:21.345Z,101614.45
2022-11-28T19:23:55.475Z,101617.95
2022-11-28T19:26:29.626Z,101615.98
2022-11-28T19:29:04.438Z,101621.98
2022-11-28T19:31:38.861Z,101629.23
2022-11-28T19:34:16.056Z,101626.92
2022-11-28T19:36:51.128Z,101627.66
2022-11-28T19:39:25.068Z,101629.61
2022-11-28T19:41:58.042Z,101632.34
2022-11-28T19:44:29.929Z,101628.25
2022-11-28T19:47:02.636Z,101630.05
2022-11-28T19:49:35.165Z,101631.86
2022-11-28T19:52:07.733Z,101631.68
2022-11-28T19:54:40.305Z,101636.42
2022-11-28T19:57:13.111Z,101634.99
2022-11-28T19:59:46.132Z,101631.76
2022-11-28T20:02:21.685Z,101632.09
2022-11-28T20:04:55.572Z,101630.54
2022-11-28T20:07:28.793Z,101626.09
2022-11-28T20:10:02.866Z,101621.39
2022-11-28T20:12:36.821Z,101618.50
2022-11-28T20:15:16.720Z,101619.73
2022-11-28T20:17:51.059Z,101618.11
2022-11-28T20:20:23.769Z,101617.77
2022-11-28T20:22:57.647Z,101615.88
2022-11-28T20:25:30.349Z,101616.55
2022-11-28T20:28:04.309Z,101615.08
2022-11-28T20:30:41.173Z,101617.70
2022-11-28T20:33:13.808Z,101617.72
2022-11-28T20:35:46.327Z,101617.71
2022-11-28T20:38:20.475Z,101619.10
2022-11-28T20:40:53.154Z,101619.95
2022-11-28T20:43:30.333Z,101624.63
2022-11-28T20:46:07.833Z,101627.70
2022-11-28T20:48:42.411Z,101629.61
2022-11-28T20:51:17.762Z,101627.88
2022-11-28T20:53:50.465Z,101623.49
2022-11-28T20:56:24.681Z,101616.67
2022-11-28T20:58:58.606Z,101613.02
2022-11-28T21:01:34.196Z,101614.60
2022-11-28T21:04:08.478Z,101613.52
2022-11-28T21:06:41.907Z,101617.52
2022-11-28T21:09:14.483Z,101615.72
2022-11-28T21:11:57.275Z,101619.71
2022-11-28T21:14:30.898Z,101622.64
2022-11-28T21:17:04.159Z,101627.63
2022-11-28T21:19:36.826Z,101635.35
2022-11-28T21:22:09.270Z,101639.48
2022-11-28T21:24:41.769Z,101638.47
2022-11-28T21:27:14.282Z,101635.65
2022-11-28T21:29:47.030Z,101634.31
2022-11-28T21:32:18.113Z,101635.45
2022-11-28T21:34:53.469Z,101633.95
2022-11-28T21:37:26.105Z,101633.03
2022-11-28T21:40:00.246Z,101631.60
2022-11-28T21:42:34.274Z,101636.30
2022-11-28T21:45:07.860Z,101638.12
2022-11-28T21:47:40.536Z,101638.86
2022-11-28T21:50:15.426Z,101637.44
2022-11-28T21:52:48.168Z,101629.55
2022-11-28T21:55:20.849Z,101624.60
2022-11-28T21:57:53.852Z,101625.00
2022-11-28T22:00:52.154Z,101621.73
2022-11-28T22:03:19.089Z,101618.66
2022-11-28T22:05:52.891Z,101620.04
2022-11-28T22:08:25.241Z,101621.66
2022-11-28T22:11:01.102Z,101626.77
2022-11-28T22:13:34.008Z,101627.05
2022-11-28T22:16:05.688Z,101630.46
2022-11-28T22:18:38.293Z,101633.65
2022-11-28T22:21:49.408Z,101627.20
2022-11-28T22:24:02.584Z,101624.88
2022-11-28T22:26:35.482Z,101621.02
2022-11-28T22:29:08.077Z,101615.75
2022-11-28T22:31:40.505Z,101611.63
2022-11-28T22:34:13.634Z,101608.98
2022-11-28T22:36:45.979Z,101607.24
2022-11-28T22:39:18.382Z,101606.39
2022-11-28T22:41:50.787Z,101604.99
2022-11-28T22:44:23.288Z,101605.80
2022-11-28T22:46:55.711Z,101606.55
2022-11-28T22:49:28.139Z,101608.79
2022-11-28T22:52:00.569Z,101602.13
2022-11-28T22:54:33.108Z,101598.82
2022-11-28T22:57:05.661Z,101595.70
2022-11-28T22:59:38.709Z,101595.05
2022-11-28T23:02:11.239Z,101594.98
2022-11-28T23:04:42.789Z,101595.88
2022-11-28T23:07:16.041Z,101596.31
2022-11-28T23:09:48.528Z,101595.52
2022-11-28T23:12:20.973Z,101589.59
2022-11-28T23:14:53.386Z,101586.77
2022-11-28T23:17:26.121Z,101587.50
2022-11-28T23:19:58.524Z,101585.69
2022-11-28T23:22:30.982Z,101580.37
2022-11-28T23:25:03.403Z,101574.95
2022-11-28T23:27:35.873Z,101574.21
2022-11-28T23:30:10.354Z,101566.64
2022-11-28T23:32:42.970Z,101564.14
2022-11-28T23:35:15.539Z,101570.20
2022-11-28T23:37:47.998Z,101567.48
2022-11-28T23:40:20.667Z,101568.38
2022-11-28T23:42:53.205Z,101567.70
2022-11-28T23:45:25.680Z,101564.45
2022-11-28T23:47:58.113Z,101563.04
2022-11-28T23:50:32.087Z,101563.22
2022-11-28T23:53:04.519Z,101563.14
2022-11-28T23:55:37.644Z,101564.67
2022-11-28T23:58:10.217Z,101564.02
